sensor_id;sensor_type;location;lat;lon;timestamp;pressure;altitude;pressure_sealevel;temperature;humidity
37200;BME280;23096;50.892;16.746;2022-11-04T00:01:19;98441.28;;;11.45;69.90
37200;BME280;23096;50.892;16.746;2022-11-04T00:03:48;98436.89;;;11.47;69.89
37200;BME280;23096;50.892;16.746;2022-11-04T00:06:14;98429.97;;;11.47;69.86
37200;BME280;23096;50.892;16.746;2022-11-04T00:08:40;98432.05;;;11.49;69.88
37200;BME280;23096;50.892;16.746;2022-11-04T00:11:06;98427.72;;;11.50;69.81
37200;BME280;23096;50.892;16.746;2022-11-04T00:16:27;98423.78;;;11.51;69.81
37200;BME280;23096;50.892;16.746;2022-11-04T00:19:11;98420.34;;;11.51;69.80
37200;BME280;23096;50.892;16.746;2022-11-04T00:21:37;98418.23;;;11.50;69.81
37200;BME280;23096;50.892;16.746;2022-11-04T00:24:21;98422.02;;;11.52;69.78
37200;BME280;23096;50.892;16.746;2022-11-04T00:27:06;98424.75;;;11.49;69.76
37200;BME280;23096;50.892;16.746;2022-11-04T00:29:51;98420.66;;;11.45;69.70
37200;BME280;23096;50.892;16.746;2022-11-04T00:32:18;98422.02;;;11.43;69.76
37200;BME280;23096;50.892;16.746;2022-11-04T00:35:02;98414.73;;;11.43;69.79
37200;BME280;23096;50.892;16.746;2022-11-04T00:37:31;98403.59;;;11.42;69.79
37200;BME280;23096;50.892;16.746;2022-11-04T00:39:57;98401.91;;;11.41;69.82
37200;BME280;23096;50.892;16.746;2022-11-04T00:42:23;98402.38;;;11.41;69.80
37200;BME280;23096;50.892;16.746;2022-11-04T00:44:48;98384.85;;;11.39;69.78
37200;BME280;23096;50.892;16.746;2022-11-04T00:47:14;98380.23;;;11.37;69.81
37200;BME280;23096;50.892;16.746;2022-11-04T00:49:40;98376.86;;;11.35;69.78
37200;BME280;23096;50.892;16.746;2022-11-04T00:52:06;98382.19;;;11.31;69.77
37200;BME280;23096;50.892;16.746;2022-11-04T00:54:32;98376.70;;;11.29;69.79
37200;BME280;23096;50.892;16.746;2022-11-04T00:56:58;98377.24;;;11.27;69.85
37200;BME280;23096;50.892;16.746;2022-11-04T00:59:24;98365.27;;;11.26;69.86
37200;BME280;23096;50.892;16.746;2022-11-04T01:01:49;98369.58;;;11.25;69.88
37200;BME280;23096;50.892;16.746;2022-11-04T01:04:16;98357.44;;;11.27;69.90
37200;BME280;23096;50.892;16.746;2022-11-04T01:06:41;98354.56;;;11.25;69.85
37200;BME280;23096;50.892;16.746;2022-11-04T01:09:07;98353.34;;;11.23;69.85
37200;BME280;23096;50.892;16.746;2022-11-04T01:11:35;98348.66;;;11.23;69.91
37200;BME280;23096;50.892;16.746;2022-11-04T01:14:02;98349.48;;;11.23;69.89
37200;BME280;23096;50.892;16.746;2022-11-04T01:16:28;98349.63;;;11.20;69.84
37200;BME280;23096;50.892;16.746;2022-11-04T01:18:55;98342.13;;;11.16;69.85
37200;BME280;23096;50.892;16.746;2022-11-04T01:21:21;98347.28;;;11.16;69.95
37200;BME280;23096;50.892;16.746;2022-11-04T01:23:49;98349.03;;;11.15;70.00
37200;BME280;23096;50.892;16.746;2022-11-04T01:26:17;98340.84;;;11.16;70.02
37200;BME280;23096;50.892;16.746;2022-11-04T01:28:44;98335.68;;;11.16;70.04
37200;BME280;23096;50.892;16.746;2022-11-04T01:31:14;98339.08;;;11.16;70.06
37200;BME280;23096;50.892;16.746;2022-11-04T01:33:43;98336.14;;;11.15;70.07
37200;BME280;23096;50.892;16.746;2022-11-04T01:36:09;98327.95;;;11.16;70.11
37200;BME280;23096;50.892;16.746;2022-11-04T01:38:35;98327.95;;;11.16;70.07
37200;BME280;23096;50.892;16.746;2022-11-04T01:41:01;98320.75;;;11.13;70.11
37200;BME280;23096;50.892;16.746;2022-11-04T01:46:20;98323.39;;;11.12;70.19
37200;BME280;23096;50.892;16.746;2022-11-04T01:48:52;98318.23;;;11.12;70.18
37200;BME280;23096;50.892;16.746;2022-11-04T01:51:18;98319.98;;;11.11;70.21
37200;BME280;23096;50.892;16.746;2022-11-04T01:53:45;98314.83;;;11.11;70.20
37200;BME280;23096;50.892;16.746;2022-11-04T01:56:12;98307.92;;;11.12;70.20
37200;BME280;23096;50.892;16.746;2022-11-04T01:58:44;98297.32;;;11.09;70.17
37200;BME280;23096;50.892;16.746;2022-11-04T02:01:08;98304.73;;;11.07;70.12
37200;BME280;23096;50.892;16.746;2022-11-04T02:03:42;98301.00;;;11.04;70.16
37200;BME280;23096;50.892;16.746;2022-11-04T02:06:05;98292.16;;;11.01;70.21
37200;BME280;23096;50.892;16.746;2022-11-04T02:08:32;98301.10;;;11.02;70.23
37200;BME280;23096;50.892;16.746;2022-11-04T02:10:59;98289.94;;;11.02;70.26
37200;BME280;23096;50.892;16.746;2022-11-04T02:13:27;98297.31;;;11.01;70.29
37200;BME280;23096;50.892;16.746;2022-11-04T02:15:56;98289.94;;;11.02;70.37
37200;BME280;23096;50.892;16.746;2022-11-04T02:24:25;98287.97;;;10.98;70.34
37200;BME280;23096;50.892;16.746;2022-11-04T02:46:06;98269.47;;;10.81;70.49
37200;BME280;23096;50.892;16.746;2022-11-04T02:48:38;98267.02;;;10.78;70.52
37200;BME280;23096;50.892;16.746;2022-11-04T02:51:09;98276.90;;;10.79;70.60
37200;BME280;23096;50.892;16.746;2022-11-04T02:53:56;98272.34;;;10.75;70.57
37200;BME280;23096;50.892;16.746;2022-11-04T02:56:24;98267.33;;;10.72;70.62
37200;BME280;23096;50.892;16.746;2022-11-04T02:59:03;98269.08;;;10.71;70.74
37200;BME280;23096;50.892;16.746;2022-11-04T03:01:28;98266.87;;;10.72;70.85
37200;BME280;23096;50.892;16.746;2022-11-04T03:03:59;98273.24;;;10.74;70.92
37200;BME280;23096;50.892;16.746;2022-11-04T03:06:25;98274.99;;;10.73;70.93
37200;BME280;23096;50.892;16.746;2022-11-04T03:08:52;98276.71;;;10.73;70.92
37200;BME280;23096;50.892;16.746;2022-11-04T03:11:25;98264.43;;;10.69;70.90
37200;BME280;23096;50.892;16.746;2022-11-04T03:14:04;98267.61;;;10.66;70.95
37200;BME280;23096;50.892;16.746;2022-11-04T03:16:34;98264.80;;;10.62;70.97
37200;BME280;23096;50.892;16.746;2022-11-04T03:21:53;98268.91;;;10.57;71.07
37200;BME280;23096;50.892;16.746;2022-11-04T03:24:18;98267.75;;;10.54;71.10
37200;BME280;23096;50.892;16.746;2022-11-04T03:26:45;98256.36;;;10.49;71.19
37200;BME280;23096;50.892;16.746;2022-11-04T03:29:28;98259.04;;;10.48;71.30
37200;BME280;23096;50.892;16.746;2022-11-04T03:34:39;98261.02;;;10.51;71.48
37200;BME280;23096;50.892;16.746;2022-11-04T03:37:05;98255.47;;;10.50;71.49
37200;BME280;23096;50.892;16.746;2022-11-04T03:39:31;98255.08;;;10.49;71.58
37200;BME280;23096;50.892;16.746;2022-11-04T03:41:58;98249.09;;;10.49;71.65
37200;BME280;23096;50.892;16.746;2022-11-04T03:44:26;98250.84;;;10.48;71.71
37200;BME280;23096;50.892;16.746;2022-11-04T03:46:54;98246.98;;;10.48;71.71
37200;BME280;23096;50.892;16.746;2022-11-04T03:49:20;98242.36;;;10.46;71.78
37200;BME280;23096;50.892;16.746;2022-11-04T03:51:47;98245.90;;;10.44;71.79
37200;BME280;23096;50.892;16.746;2022-11-04T03:54:13;98238.64;;;10.43;71.88
37200;BME280;23096;50.892;16.746;2022-11-04T04:02:02;98251.81;;;10.46;72.06
37200;BME280;23096;50.892;16.746;2022-11-04T04:04:29;98247.52;;;10.46;72.14
37200;BME280;23096;50.892;16.746;2022-11-04T04:07:04;98246.16;;;10.48;72.19
37200;BME280;23096;50.892;16.746;2022-11-04T04:09:41;98249.09;;;10.49;72.27
37200;BME280;23096;50.892;16.746;2022-11-04T04:12:26;98248.27;;;10.48;72.31
37200;BME280;23096;50.892;16.746;2022-11-04T04:14:55;98234.64;;;10.46;72.35
37200;BME280;23096;50.892;16.746;2022-11-04T04:17:36;98244.41;;;10.48;72.38
37200;BME280;23096;50.892;16.746;2022-11-04T04:20:06;98244.55;;;10.45;72.36
37200;BME280;23096;50.892;16.746;2022-11-04T04:22:44;98243.39;;;10.42;72.45
37200;BME280;23096;50.892;16.746;2022-11-04T04:25:12;98242.50;;;10.43;72.59
37200;BME280;23096;50.892;16.746;2022-11-04T04:27:57;98232.20;;;10.43;72.59
37200;BME280;23096;50.892;16.746;2022-11-04T04:30:25;98232.73;;;10.41;72.62
37200;BME280;23096;50.892;16.746;2022-11-04T04:32:55;98237.42;;;10.42;72.73
37200;BME280;23096;50.892;16.746;2022-11-04T04:35:31;98235.67;;;10.42;72.71
37200;BME280;23096;50.892;16.746;2022-11-04T04:38:07;98232.33;;;10.40;72.80
37200;BME280;23096;50.892;16.746;2022-11-04T04:41:26;98234.84;;;10.42;72.81
37200;BME280;23096;50.892;16.746;2022-11-04T04:44:12;98236.59;;;10.41;72.90
37200;BME280;23096;50.892;16.746;2022-11-04T04:47:04;98236.12;;;10.42;72.94
37200;BME280;23096;50.892;16.746;2022-11-04T04:49:30;98217.64;;;10.42;73.02
37200;BME280;23096;50.892;16.746;2022-11-04T04:52:02;98217.50;;;10.45;73.08
37200;BME280;23096;50.892;16.746;2022-11-04T04:54:29;98225.09;;;10.48;73.16
37200;BME280;23096;50.892;16.746;2022-11-04T04:56:55;98218.13;;;10.50;73.15
37200;BME280;23096;50.892;16.746;2022-11-04T04:59:21;98216.23;;;10.54;73.22
37200;BME280;23096;50.892;16.746;2022-11-04T05:01:47;98206.30;;;10.55;73.24
37200;BME280;23096;50.892;16.746;2022-11-04T05:04:13;98197.45;;;10.52;73.21
37200;BME280;23096;50.892;16.746;2022-11-04T05:06:38;98202.89;;;10.54;73.27
37200;BME280;23096;50.892;16.746;2022-11-04T05:09:04;98203.72;;;10.55;73.26
37200;BME280;23096;50.892;16.746;2022-11-04T05:11:30;98202.14;;;10.52;73.23
37200;BME280;23096;50.892;16.746;2022-11-04T05:13:57;98198.73;;;10.52;73.32
37200;BME280;23096;50.892;16.746;2022-11-04T05:16:25;98203.89;;;10.52;73.34
37200;BME280;23096;50.892;16.746;2022-11-04T05:18:51;98200.49;;;10.51;73.37
37200;BME280;23096;50.892;16.746;2022-11-04T05:21:17;98193.66;;;10.50;73.38
37200;BME280;23096;50.892;16.746;2022-11-04T05:23:43;98191.38;;;10.53;73.47
37200;BME280;23096;50.892;16.746;2022-11-04T05:26:09;98188.27;;;10.55;73.49
37200;BME280;23096;50.892;16.746;2022-11-04T05:28:35;98186.91;;;10.57;73.55
37200;BME280;23096;50.892;16.746;2022-11-04T05:31:02;98183.80;;;10.59;73.58
37200;BME280;23096;50.892;16.746;2022-11-04T05:33:28;98188.45;;;10.61;73.56
37200;BME280;23096;50.892;16.746;2022-11-04T05:35:54;98187.59;;;10.60;73.54
37200;BME280;23096;50.892;16.746;2022-11-04T05:38:34;98182.16;;;10.58;73.55
37200;BME280;23096;50.892;16.746;2022-11-04T05:41:00;98177.46;;;10.57;73.58
37200;BME280;23096;50.892;16.746;2022-11-04T05:43:25;98175.39;;;10.55;73.55
37200;BME280;23096;50.892;16.746;2022-11-04T05:45:52;98179.78;;;10.53;73.55
37200;BME280;23096;50.892;16.746;2022-11-04T05:48:17;98180.78;;;10.50;73.64
37200;BME280;23096;50.892;16.746;2022-11-04T05:50:43;98184.18;;;10.51;73.68
37200;BME280;23096;50.892;16.746;2022-11-04T05:53:09;98188.37;;;10.53;73.73
37200;BME280;23096;50.892;16.746;2022-11-04T05:55:35;98190.48;;;10.54;73.72
37200;BME280;23096;50.892;16.746;2022-11-04T05:58:01;98190.95;;;10.53;73.77
37200;BME280;23096;50.892;16.746;2022-11-04T06:00:27;98192.13;;;10.55;73.76
37200;BME280;23096;50.892;16.746;2022-11-04T06:02:53;98193.88;;;10.54;73.80
37200;BME280;23096;50.892;16.746;2022-11-04T06:05:21;98189.66;;;10.53;73.79
37200;BME280;23096;50.892;16.746;2022-11-04T06:07:48;98194.27;;;10.55;73.83
37200;BME280;23096;50.892;16.746;2022-11-04T06:10:14;98195.39;;;10.59;73.91
37200;BME280;23096;50.892;16.746;2022-11-04T06:12:42;98190.49;;;10.63;74.02
37200;BME280;23096;50.892;16.746;2022-11-04T06:15:08;98193.58;;;10.69;74.06
37200;BME280;23096;50.892;16.746;2022-11-04T06:17:34;98196.34;;;10.75;74.10
37200;BME280;23096;50.892;16.746;2022-11-04T06:20:00;98203.76;;;10.81;74.10
37200;BME280;23096;50.892;16.746;2022-11-04T06:22:26;98202.69;;;10.85;74.09
37200;BME280;23096;50.892;16.746;2022-11-04T06:24:52;98204.98;;;10.91;74.13
37200;BME280;23096;50.892;16.746;2022-11-04T06:27:18;98202.55;;;10.97;74.12
37200;BME280;23096;50.892;16.746;2022-11-04T06:29:46;98203.16;;;11.02;74.14
37200;BME280;23096;50.892;16.746;2022-11-04T06:32:13;98197.28;;;11.07;74.11
37200;BME280;23096;50.892;16.746;2022-11-04T06:34:40;98196.25;;;11.11;74.09
37200;BME280;23096;50.892;16.746;2022-11-04T06:37:06;98196.81;;;11.17;74.10
37200;BME280;23096;50.892;16.746;2022-11-04T06:39:32;98195.31;;;11.21;74.09
37200;BME280;23096;50.892;16.746;2022-11-04T06:41:58;98200.68;;;11.25;74.07
37200;BME280;23096;50.892;16.746;2022-11-04T06:44:24;98199.63;;;11.29;74.04
37200;BME280;23096;50.892;16.746;2022-11-04T06:46:50;98202.03;;;11.32;73.98
37200;BME280;23096;50.892;16.746;2022-11-04T06:49:17;98211.81;;;11.35;73.96
37200;BME280;23096;50.892;16.746;2022-11-04T06:51:44;98203.92;;;11.38;73.95
37200;BME280;23096;50.892;16.746;2022-11-04T06:54:11;98204.59;;;11.41;73.96
37200;BME280;23096;50.892;16.746;2022-11-04T06:56:38;98206.02;;;11.47;73.93
37200;BME280;23096;50.892;16.746;2022-11-04T06:59:04;98214.52;;;11.49;73.88
37200;BME280;23096;50.892;16.746;2022-11-04T07:01:32;98217.41;;;11.51;73.87
37200;BME280;23096;50.892;16.746;2022-11-04T07:03:59;98212.92;;;11.55;73.82
37200;BME280;23096;50.892;16.746;2022-11-04T07:06:26;98214.14;;;11.57;73.78
37200;BME280;23096;50.892;16.746;2022-11-04T07:08:54;98223.38;;;11.61;73.73
37200;BME280;23096;50.892;16.746;2022-11-04T07:11:21;98223.66;;;11.63;73.73
37200;BME280;23096;50.892;16.746;2022-11-04T07:13:47;98224.25;;;11.68;73.68
37200;BME280;23096;50.892;16.746;2022-11-04T07:16:14;98236.54;;;11.72;73.64
37200;BME280;23096;50.892;16.746;2022-11-04T07:18:40;98245.03;;;11.74;73.59
37200;BME280;23096;50.892;16.746;2022-11-04T07:21:06;98243.66;;;11.76;73.53
37200;BME280;23096;50.892;16.746;2022-11-04T07:23:32;98245.78;;;11.76;73.46
37200;BME280;23096;50.892;16.746;2022-11-04T07:25:59;98252.16;;;11.78;73.41
37200;BME280;23096;50.892;16.746;2022-11-04T07:28:25;98250.86;;;11.78;73.33
37200;BME280;23096;50.892;16.746;2022-11-04T07:30:51;98250.04;;;11.77;73.28
37200;BME280;23096;50.892;16.746;2022-11-04T07:33:22;98245.70;;;11.78;73.27
37200;BME280;23096;50.892;16.746;2022-11-04T07:35:48;98246.99;;;11.78;73.19
37200;BME280;23096;50.892;16.746;2022-11-04T07:38:14;98250.12;;;11.76;73.16
37200;BME280;23096;50.892;16.746;2022-11-04T07:40:40;98251.41;;;11.76;73.13
37200;BME280;23096;50.892;16.746;2022-11-04T07:43:06;98247.45;;;11.77;73.11
37200;BME280;23096;50.892;16.746;2022-11-04T07:45:36;98256.77;;;11.80;73.11
37200;BME280;23096;50.892;16.746;2022-11-04T07:48:02;98266.27;;;11.79;73.10
37200;BME280;23096;50.892;16.746;2022-11-04T07:50:28;98271.83;;;11.80;73.09
37200;BME280;23096;50.892;16.746;2022-11-04T07:52:54;98272.11;;;11.83;73.08
37200;BME280;23096;50.892;16.746;2022-11-04T07:55:20;98275.91;;;11.84;73.02
37200;BME280;23096;50.892;16.746;2022-11-04T07:57:46;98268.98;;;11.85;72.99
37200;BME280;23096;50.892;16.746;2022-11-04T08:00:13;98273.68;;;11.85;72.98
37200;BME280;23096;50.892;16.746;2022-11-04T08:02:40;98270.59;;;11.87;73.06
37200;BME280;23096;50.892;16.746;2022-11-04T08:05:09;98276.89;;;11.91;73.07
37200;BME280;23096;50.892;16.746;2022-11-04T08:07:36;98276.27;;;11.94;73.09
37200;BME280;23096;50.892;16.746;2022-11-04T08:10:02;98276.41;;;12.00;73.09
37200;BME280;23096;50.892;16.746;2022-11-04T08:12:28;98266.75;;;12.03;73.08
37200;BME280;23096;50.892;16.746;2022-11-04T08:14:56;98266.13;;;12.07;73.07
37200;BME280;23096;50.892;16.746;2022-11-04T08:17:22;98271.14;;;12.10;73.02
37200;BME280;23096;50.892;16.746;2022-11-04T08:19:48;98270.13;;;12.13;72.98
37200;BME280;23096;50.892;16.746;2022-11-04T08:22:14;98272.20;;;12.15;72.95
37200;BME280;23096;50.892;16.746;2022-11-04T08:24:39;98267.47;;;12.14;72.87
37200;BME280;23096;50.892;16.746;2022-11-04T08:27:06;98267.11;;;12.13;72.82
37200;BME280;23096;50.892;16.746;2022-11-04T08:29:35;98256.78;;;12.13;72.80
37200;BME280;23096;50.892;16.746;2022-11-04T08:32:01;98258.15;;;12.12;72.78
37200;BME280;23096;50.892;16.746;2022-11-04T08:34:28;98258.23;;;12.10;72.77
37200;BME280;23096;50.892;16.746;2022-11-04T08:36:54;98262.17;;;12.08;72.77
37200;BME280;23096;50.892;16.746;2022-11-04T08:39:22;98257.41;;;12.10;72.80
37200;BME280;23096;50.892;16.746;2022-11-04T08:41:48;98265.50;;;12.11;72.78
37200;BME280;23096;50.892;16.746;2022-11-04T08:44:15;98265.97;;;12.10;72.77
37200;BME280;23096;50.892;16.746;2022-11-04T08:46:42;98270.23;;;12.11;72.72
37200;BME280;23096;50.892;16.746;2022-11-04T08:49:09;98263.47;;;12.08;72.71
37200;BME280;23096;50.892;16.746;2022-11-04T08:51:36;98257.56;;;12.06;72.67
37200;BME280;23096;50.892;16.746;2022-11-04T08:54:05;98261.50;;;12.05;72.71
37200;BME280;23096;50.892;16.746;2022-11-04T08:56:32;98260.69;;;12.04;72.69
37200;BME280;23096;50.892;16.746;2022-11-04T08:59:00;98269.72;;;12.04;72.71
37200;BME280;23096;50.892;16.746;2022-11-04T09:01:30;98267.14;;;12.04;72.72
37200;BME280;23096;50.892;16.746;2022-11-04T09:03:59;98274.80;;;12.06;72.75
37200;BME280;23096;50.892;16.746;2022-11-04T09:06:28;98276.38;;;12.08;72.74
37200;BME280;23096;50.892;16.746;2022-11-04T09:08:56;98271.60;;;12.10;72.75
37200;BME280;23096;50.892;16.746;2022-11-04T09:11:23;98270.23;;;12.11;72.72
37200;BME280;23096;50.892;16.746;2022-11-04T09:13:49;98277.44;;;12.13;72.71
37200;BME280;23096;50.892;16.746;2022-11-04T09:16:15;98267.39;;;12.16;72.70
37200;BME280;23096;50.892;16.746;2022-11-04T09:18:41;98254.86;;;12.17;72.70
37200;BME280;23096;50.892;16.746;2022-11-04T09:21:08;98252.95;;;12.20;72.71
37200;BME280;23096;50.892;16.746;2022-11-04T09:23:34;98250.65;;;12.23;72.72
37200;BME280;23096;50.892;16.746;2022-11-04T09:26:10;98250.49;;;12.26;72.73
37200;BME280;23096;50.892;16.746;2022-11-04T09:28:38;98250.69;;;12.30;72.78
37200;BME280;23096;50.892;16.746;2022-11-04T09:31:10;98251.20;;;12.37;72.79
37200;BME280;23096;50.892;16.746;2022-11-04T09:33:33;98244.39;;;12.43;72.80
37200;BME280;23096;50.892;16.746;2022-11-04T09:35:59;98243.60;;;12.50;72.81
37200;BME280;23096;50.892;16.746;2022-11-04T09:38:25;98241.41;;;12.58;72.84
37200;BME280;23096;50.892;16.746;2022-11-04T09:40:51;98244.77;;;12.67;72.82
37200;BME280;23096;50.892;16.746;2022-11-04T09:43:27;98243.97;;;12.74;72.76
37200;BME280;23096;50.892;16.746;2022-11-04T09:46:06;98245.20;;;12.82;72.70
37200;BME280;23096;50.892;16.746;2022-11-04T09:48:37;98246.13;;;12.89;72.60
37200;BME280;23096;50.892;16.746;2022-11-04T09:51:05;98244.51;;;12.95;72.56
37200;BME280;23096;50.892;16.746;2022-11-04T09:56:12;98234.10;;;13.03;72.36
37200;BME280;23096;50.892;16.746;2022-11-04T09:58:37;98234.92;;;13.04;72.15
37200;BME280;23096;50.892;16.746;2022-11-04T10:03:46;98238.13;;;12.93;71.92
37200;BME280;23096;50.892;16.746;2022-11-04T10:14:44;98220.48;;;12.85;71.78
37200;BME280;23096;50.892;16.746;2022-11-04T10:22:53;98232.17;;;12.77;71.63
37200;BME280;23096;50.892;16.746;2022-11-04T10:25:37;98227.98;;;12.74;71.60
37200;BME280;23096;50.892;16.746;2022-11-04T10:28:02;98238.16;;;12.77;71.58
37200;BME280;23096;50.892;16.746;2022-11-04T10:30:28;98241.30;;;12.75;71.54
37200;BME280;23096;50.892;16.746;2022-11-04T10:38:00;98238.52;;;12.71;71.42
37200;BME280;23096;50.892;16.746;2022-11-04T10:40:30;98244.24;;;12.69;71.39
37200;BME280;23096;50.892;16.746;2022-11-04T10:42:57;98238.30;;;12.67;71.37
37200;BME280;23096;50.892;16.746;2022-11-04T10:45:33;98242.56;;;12.68;71.39
37200;BME280;23096;50.892;16.746;2022-11-04T10:48:12;98239.08;;;12.69;71.40
37200;BME280;23096;50.892;16.746;2022-11-04T10:50:56;98238.61;;;12.70;71.37
37200;BME280;23096;50.892;16.746;2022-11-04T10:53:27;98226.42;;;12.72;71.36
37200;BME280;23096;50.892;16.746;2022-11-04T10:58:41;98223.48;;;12.78;71.38
37200;BME280;23096;50.892;16.746;2022-11-04T11:01:26;98215.09;;;12.81;71.36
37200;BME280;23096;50.892;16.746;2022-11-04T11:03:53;98205.41;;;12.85;71.38
37200;BME280;23096;50.892;16.746;2022-11-04T11:06:26;98201.20;;;12.91;71.41
37200;BME280;23096;50.892;16.746;2022-11-04T11:08:54;98195.19;;;12.98;71.46
37200;BME280;23096;50.892;16.746;2022-11-04T11:11:44;98185.07;;;13.09;71.53
37200;BME280;23096;50.892;16.746;2022-11-04T11:14:00;98188.20;;;13.21;71.56
37200;BME280;23096;50.892;16.746;2022-11-04T11:16:26;98191.27;;;13.28;71.43
37200;BME280;23096;50.892;16.746;2022-11-04T11:19:37;98189.41;;;13.30;71.39
37200;BME280;23096;50.892;16.746;2022-11-04T11:21:44;98191.47;;;13.32;71.26
37200;BME280;23096;50.892;16.746;2022-11-04T11:24:15;98194.63;;;13.37;71.31
37200;BME280;23096;50.892;16.746;2022-11-04T11:26:46;98196.30;;;13.46;71.30
37200;BME280;23096;50.892;16.746;2022-11-04T11:29:21;98186.13;;;13.50;71.22
37200;BME280;23096;50.892;16.746;2022-11-04T11:31:45;98188.45;;;13.54;71.17
37200;BME280;23096;50.892;16.746;2022-11-04T11:34:16;98187.80;;;13.58;71.14
37200;BME280;23096;50.892;16.746;2022-11-04T11:36:47;98182.33;;;13.63;71.08
37200;BME280;23096;50.892;16.746;2022-11-04T11:39:15;98173.91;;;13.66;71.03
37200;BME280;23096;50.892;16.746;2022-11-04T11:41:57;98170.77;;;13.68;71.01
37200;BME280;23096;50.892;16.746;2022-11-04T11:44:30;98175.67;;;13.73;70.94
37200;BME280;23096;50.892;16.746;2022-11-04T11:47:03;98168.98;;;13.76;70.89
37200;BME280;23096;50.892;16.746;2022-11-04T11:49:31;98173.25;;;13.77;70.82
37200;BME280;23096;50.892;16.746;2022-11-04T11:55:01;98169.19;;;13.80;70.69
37200;BME280;23096;50.892;16.746;2022-11-04T12:00:12;98170.66;;;13.77;70.62
37200;BME280;23096;50.892;16.746;2022-11-04T12:02:40;98169.84;;;13.76;70.57
37200;BME280;23096;50.892;16.746;2022-11-04T12:05:12;98162.52;;;13.76;70.54
37200;BME280;23096;50.892;16.746;2022-11-04T12:07:41;98167.98;;;13.78;70.52
37200;BME280;23096;50.892;16.746;2022-11-04T12:18:31;98168.25;;;13.81;70.45
37200;BME280;23096;50.892;16.746;2022-11-04T12:21:01;98161.69;;;13.83;70.43
37200;BME280;23096;50.892;16.746;2022-11-04T12:23:38;98168.98;;;13.83;70.39
37200;BME280;23096;50.892;16.746;2022-11-04T12:26:30;98172.77;;;13.85;70.32
37200;BME280;23096;50.892;16.746;2022-11-04T12:36:41;98172.04;;;13.83;70.23
37200;BME280;23096;50.892;16.746;2022-11-04T12:39:29;98168.16;;;13.83;70.21
37200;BME280;23096;50.892;16.746;2022-11-04T12:42:16;98165.22;;;13.82;70.15
37200;BME280;23096;50.892;16.746;2022-11-04T12:47:38;98160.69;;;13.78;70.12
37200;BME280;23096;50.892;16.746;2022-11-04T13:00:44;98159.59;;;13.68;70.02
37200;BME280;23096;50.892;16.746;2022-11-04T13:06:00;98159.77;;;13.65;69.96
37200;BME280;23096;50.892;16.746;2022-11-04T13:08:51;98163.86;;;13.61;69.94
37200;BME280;23096;50.892;16.746;2022-11-04T13:11:24;98169.13;;;13.60;69.95
37200;BME280;23096;50.892;16.746;2022-11-04T13:16:35;98165.89;;;13.56;69.91
37200;BME280;23096;50.892;16.746;2022-11-04T13:19:04;98160.89;;;13.53;69.86
37200;BME280;23096;50.892;16.746;2022-11-04T13:21:33;98166.63;;;13.51;69.86
37200;BME280;23096;50.892;16.746;2022-11-04T13:24:02;98170.69;;;13.48;69.85
37200;BME280;23096;50.892;16.746;2022-11-04T13:26:33;98169.57;;;13.45;69.84
37200;BME280;23096;50.892;16.746;2022-11-04T13:34:34;98162.38;;;13.36;69.84
37200;BME280;23096;50.892;16.746;2022-11-04T13:37:06;98164.70;;;13.33;69.88
37200;BME280;23096;50.892;16.746;2022-11-04T13:39:43;98161.72;;;13.32;69.83
37200;BME280;23096;50.892;16.746;2022-11-04T13:42:24;98159.31;;;13.29;69.87
37200;BME280;23096;50.892;16.746;2022-11-04T13:45:12;98167.98;;;13.28;69.86
37200;BME280;23096;50.892;16.746;2022-11-04T13:50:31;98162.55;;;13.26;69.88
37200;BME280;23096;50.892;16.746;2022-11-04T13:52:59;98147.94;;;13.24;69.90
37200;BME280;23096;50.892;16.746;2022-11-04T13:55:25;98151.81;;;13.24;69.91
37200;BME280;23096;50.892;16.746;2022-11-04T13:57:53;98152.28;;;13.24;69.90
37200;BME280;23096;50.892;16.746;2022-11-04T14:00:28;98155.78;;;13.23;69.90
37200;BME280;23096;50.892;16.746;2022-11-04T14:02:52;98162.72;;;13.22;69.88
37200;BME280;23096;50.892;16.746;2022-11-04T14:10:38;98147.38;;;13.19;69.93
37200;BME280;23096;50.892;16.746;2022-11-04T14:18:41;98155.42;;;13.15;69.93
37200;BME280;23096;50.892;16.746;2022-11-04T14:21:17;98149.87;;;13.14;69.95
37200;BME280;23096;50.892;16.746;2022-11-04T14:23:44;98148.22;;;13.13;69.94
37200;BME280;23096;50.892;16.746;2022-11-04T14:26:11;98151.37;;;13.11;69.92
37200;BME280;23096;50.892;16.746;2022-11-04T14:28:47;98146.28;;;13.09;69.93
37200;BME280;23096;50.892;16.746;2022-11-04T14:31:12;98151.63;;;13.06;69.94
37200;BME280;23096;50.892;16.746;2022-11-04T14:38:53;98160.20;;;12.99;69.99
37200;BME280;23096;50.892;16.746;2022-11-04T14:41:47;98159.45;;;12.97;69.96
37200;BME280;23096;50.892;16.746;2022-11-04T14:50:05;98174.79;;;12.93;69.96
37200;BME280;23096;50.892;16.746;2022-11-04T14:55:15;98180.50;;;12.84;69.99
37200;BME280;23096;50.892;16.746;2022-11-04T14:57:46;98185.20;;;12.84;70.04
37200;BME280;23096;50.892;16.746;2022-11-04T15:02:46;98179.45;;;12.79;70.01
37200;BME280;23096;50.892;16.746;2022-11-04T15:05:20;98179.19;;;12.77;70.02
37200;BME280;23096;50.892;16.746;2022-11-04T15:07:48;98173.06;;;12.71;69.94
37200;BME280;23096;50.892;16.746;2022-11-04T15:10:24;98178.13;;;12.65;69.97
37200;BME280;23096;50.892;16.746;2022-11-04T15:12:52;98182.36;;;12.59;70.06
37200;BME280;23096;50.892;16.746;2022-11-04T15:18:11;98172.08;;;12.50;70.04
37200;BME280;23096;50.892;16.746;2022-11-04T15:20:47;98169.75;;;12.38;69.99
37200;BME280;23096;50.892;16.746;2022-11-04T15:23:19;98175.41;;;12.29;70.04
37200;BME280;23096;50.892;16.746;2022-11-04T15:25:48;98178.72;;;12.24;70.21
37200;BME280;23096;50.892;16.746;2022-11-04T15:28:19;98173.52;;;12.17;70.28
37200;BME280;23096;50.892;16.746;2022-11-04T15:31:06;98175.05;;;12.12;70.36